Time;durP1;ratioP1;P1;durP2;ratioP2;P2;SDS_P1;SDS_P2;PMS_P1;PMS_P2;Temp;Humidity;BMP_temperature;BMP_pressure;BME280_temperature;BME280_humidity;BME280_pressure;Samples;Min_cycle;Max_cycle;Signal;HPM_P1;HPM_P2
2022/07/02 00:00:38;;;;;;;3.47;2.08;;;14.40;99.90;;;;;;5066275;28;20047;-65
2022/07/02 00:03:05;;;;;;;2.20;1.52;;;14.30;99.90;;;;;;5065255;28;20051;-65
2022/07/02 00:05:32;;;;;;;2.60;1.80;;;14.20;99.90;;;;;;5067258;28;20055;-65
2022/07/02 00:07:58;;;;;;;3.38;1.90;;;14.20;99.90;;;;;;5065510;28;20048;-65
2022/07/02 00:10:24;;;;;;;2.90;1.42;;;14.10;99.90;;;;;;5065668;28;20051;-65
2022/07/02 00:12:50;;;;;;;7.00;2.13;;;14.10;99.90;;;;;;5066544;28;20124;-65
2022/07/02 00:15:16;;;;;;;2.78;1.63;;;14.10;99.90;;;;;;5066084;28;20398;-65
2022/07/02 00:17:42;;;;;;;2.67;1.80;;;14.10;99.90;;;;;;5066135;28;20079;-65
2022/07/02 00:20:09;;;;;;;1.73;1.50;;;14.00;99.90;;;;;;5066410;28;20552;-65
2022/07/02 00:22:35;;;;;;;4.25;2.00;;;13.90;99.90;;;;;;5064608;28;20052;-64
2022/07/02 00:25:00;;;;;;;5.32;1.95;;;13.90;99.90;;;;;;5064978;28;20053;-65
2022/07/02 00:27:29;;;;;;;2.92;2.15;;;13.90;99.90;;;;;;5066480;28;20117;-64
2022/07/02 00:30:00;;;;;;;3.22;2.00;;;13.80;99.90;;;;;;5065689;28;20141;-64
2022/07/02 00:32:28;;;;;;;2.53;1.75;;;13.80;99.90;;;;;;5066558;28;20052;-65
2022/07/02 00:34:56;;;;;;;3.97;2.20;;;13.80;99.90;;;;;;5066348;28;20128;-65
2022/07/02 00:37:23;;;;;;;4.30;2.13;;;13.80;99.90;;;;;;5065806;28;20048;-65
2022/07/02 00:39:48;;;;;;;4.35;2.20;;;13.80;99.90;;;;;;5066320;28;20055;-65
2022/07/02 00:42:15;;;;;;;3.47;2.03;;;13.80;99.90;;;;;;5066674;28;20036;-65
2022/07/02 00:44:41;;;;;;;3.13;1.98;;;13.70;99.90;;;;;;5066356;28;20060;-65
2022/07/02 00:47:09;;;;;;;3.67;2.00;;;13.70;99.90;;;;;;5065982;28;20045;-65
2022/07/02 00:49:36;;;;;;;3.20;1.65;;;13.70;99.90;;;;;;5064125;28;20068;-64
2022/07/02 00:52:03;;;;;;;5.25;1.80;;;13.70;99.90;;;;;;5066407;28;20045;-64
2022/07/02 00:54:29;;;;;;;4.00;1.58;;;13.60;99.90;;;;;;5066119;28;20872;-64
2022/07/02 00:56:55;;;;;;;5.47;2.15;;;13.70;99.90;;;;;;5064944;28;20075;-65
2022/07/02 00:59:25;;;;;;;3.13;1.95;;;13.70;99.90;;;;;;5066115;28;20182;-64
2022/07/02 01:01:52;;;;;;;2.38;1.52;;;13.60;99.90;;;;;;5066005;28;20056;-65
2022/07/02 01:04:19;;;;;;;5.65;1.92;;;13.60;99.90;;;;;;5065588;28;20043;-65
2022/07/02 01:06:48;;;;;;;3.13;1.60;;;13.60;99.90;;;;;;5065235;28;20101;-65
2022/07/02 01:12:00;;;;;;;3.22;2.00;;;13.50;99.90;;;;;;5065064;28;20119;-64
2022/07/02 01:14:26;;;;;;;4.80;2.13;;;13.50;99.90;;;;;;5066118;28;20411;-65
2022/07/02 01:16:52;;;;;;;3.67;1.95;;;13.40;99.90;;;;;;5065694;28;20113;-65
2022/07/02 01:19:19;;;;;;;3.28;2.00;;;13.50;99.90;;;;;;5064329;28;20048;-64
2022/07/02 01:22:16;;;;;;;6.65;1.90;;;13.50;99.90;;;;;;5065128;28;20040;-65
2022/07/02 01:24:44;;;;;;;3.45;2.35;;;13.40;99.90;;;;;;5066046;28;20124;-65
2022/07/02 01:27:10;;;;;;;5.93;2.55;;;13.40;99.90;;;;;;5065634;28;20395;-64
2022/07/02 01:29:36;;;;;;;2.30;2.08;;;13.40;99.90;;;;;;5065779;28;20266;-64
2022/07/02 01:32:02;;;;;;;5.32;2.67;;;13.40;99.90;;;;;;5064697;28;20041;-65
2022/07/02 01:34:28;;;;;;;4.20;2.92;;;13.40;99.90;;;;;;5065618;28;20048;-65
2022/07/02 01:36:54;;;;;;;6.32;2.63;;;13.40;99.90;;;;;;5065674;28;20036;-65
2022/07/02 01:39:24;;;;;;;4.97;2.33;;;13.40;99.90;;;;;;5065154;28;20556;-65
2022/07/02 01:41:49;;;;;;;2.88;2.00;;;13.30;99.90;;;;;;5065425;28;20751;-65
2022/07/02 01:44:16;;;;;;;2.40;2.20;;;13.30;99.90;;;;;;5066218;28;20130;-65
2022/07/02 01:46:44;;;;;;;3.05;1.98;;;13.30;99.90;;;;;;5065454;28;20041;-65
2022/07/02 01:49:10;;;;;;;3.95;1.90;;;13.30;99.90;;;;;;5065302;28;20110;-64
2022/07/02 01:51:36;;;;;;;5.82;2.33;;;13.30;99.90;;;;;;5064973;28;20064;-65
2022/07/02 01:54:03;;;;;;;5.15;2.97;;;13.20;99.90;;;;;;5064451;28;20506;-65
2022/07/02 01:56:34;;;;;;;4.85;2.30;;;13.20;99.90;;;;;;5065694;28;20040;-65
2022/07/02 01:59:00;;;;;;;3.13;2.35;;;13.30;99.90;;;;;;5064948;28;20060;-65
2022/07/02 02:01:25;;;;;;;6.00;3.33;;;13.20;99.90;;;;;;5064880;28;20127;-65
2022/07/02 02:03:51;;;;;;;3.03;2.50;;;13.20;99.90;;;;;;5065544;28;20072;-64
2022/07/02 02:06:17;;;;;;;3.03;2.55;;;13.20;99.90;;;;;;5065284;28;20041;-64
2022/07/02 02:08:42;;;;;;;5.43;3.08;;;13.20;99.90;;;;;;5065258;28;20052;-65
2022/07/02 02:11:08;;;;;;;2.88;2.60;;;13.20;99.90;;;;;;5065207;28;20474;-65
2022/07/02 02:13:33;;;;;;;3.08;2.30;;;13.10;99.90;;;;;;5065330;28;20048;-64
2022/07/02 02:15:59;;;;;;;6.22;2.95;;;13.10;99.90;;;;;;5064835;28;20080;-65
2022/07/02 02:18:25;;;;;;;4.20;2.90;;;13.10;99.90;;;;;;5065658;28;20364;-65
2022/07/02 02:20:50;;;;;;;5.97;3.05;;;13.10;99.90;;;;;;5065274;28;20078;-64
2022/07/02 02:23:16;;;;;;;6.57;3.03;;;13.20;99.90;;;;;;5063592;28;20143;-64
2022/07/02 02:25:41;;;;;;;3.38;2.72;;;13.10;99.90;;;;;;5064598;28;20501;-65
2022/07/02 02:28:07;;;;;;;4.85;2.80;;;13.10;99.90;;;;;;5064174;28;20041;-64
2022/07/02 02:30:32;;;;;;;8.02;3.45;;;13.00;99.90;;;;;;5065916;28;20041;-65
2022/07/02 02:32:58;;;;;;;4.63;2.75;;;13.00;99.90;;;;;;5068403;28;20040;-65
2022/07/02 02:35:24;;;;;;;4.63;3.17;;;13.00;99.90;;;;;;5068307;28;20370;-64
2022/07/02 02:37:50;;;;;;;5.55;3.33;;;13.00;99.90;;;;;;5068764;28;20466;-64
2022/07/02 02:40:16;;;;;;;4.63;2.85;;;13.00;99.90;;;;;;5067854;28;20057;-64
2022/07/02 02:42:41;;;;;;;3.42;2.90;;;12.90;99.90;;;;;;5067122;28;20451;-65
2022/07/02 02:45:07;;;;;;;5.28;3.13;;;12.90;99.90;;;;;;5067138;28;20048;-64
2022/07/02 02:47:33;;;;;;;6.57;3.35;;;12.90;99.90;;;;;;5068797;28;20052;-65
2022/07/02 02:49:58;;;;;;;6.45;3.20;;;12.90;99.90;;;;;;5066268;28;20037;-65
2022/07/02 02:52:24;;;;;;;5.88;3.60;;;12.90;99.90;;;;;;5068596;28;20052;-65
2022/07/02 02:54:50;;;;;;;4.70;2.78;;;12.90;99.90;;;;;;5068332;28;20044;-65
2022/07/02 02:57:16;;;;;;;3.38;3.08;;;12.80;99.90;;;;;;5068121;28;20094;-64
2022/07/02 02:59:41;;;;;;;6.63;3.05;;;12.80;99.90;;;;;;5068967;28;20044;-64
2022/07/02 03:02:07;;;;;;;5.15;3.25;;;12.90;99.90;;;;;;5067186;28;20055;-64
2022/07/02 03:04:33;;;;;;;4.95;3.10;;;12.90;99.90;;;;;;5067372;28;20044;-65
2022/07/02 03:06:59;;;;;;;6.63;3.10;;;12.90;99.90;;;;;;5068198;28;20052;-64
2022/07/02 03:09:24;;;;;;;7.35;3.22;;;12.90;99.90;;;;;;5068201;28;20044;-65
2022/07/02 03:11:50;;;;;;;4.50;3.05;;;12.90;99.90;;;;;;5067395;28;20093;-65
2022/07/02 03:14:16;;;;;;;4.32;2.83;;;12.90;99.90;;;;;;5068286;28;20048;-66
2022/07/02 03:16:41;;;;;;;7.05;3.33;;;12.80;99.90;;;;;;5067224;28;20051;-65
2022/07/02 03:19:07;;;;;;;5.28;3.40;;;12.90;99.90;;;;;;5065747;28;20098;-65
2022/07/02 03:21:33;;;;;;;3.95;2.85;;;12.90;99.90;;;;;;5068235;28;20076;-65
2022/07/02 03:23:58;;;;;;;5.68;2.95;;;12.80;99.90;;;;;;5065954;28;20076;-64
2022/07/02 03:26:24;;;;;;;4.50;3.15;;;12.80;99.90;;;;;;5067235;28;20045;-65
2022/07/02 03:28:49;;;;;;;4.72;2.95;;;12.90;99.90;;;;;;5066227;28;20253;-65
2022/07/02 03:31:15;;;;;;;5.57;3.10;;;12.80;99.90;;;;;;5066209;28;20044;-65
2022/07/02 03:33:41;;;;;;;3.70;2.90;;;12.80;99.90;;;;;;5068475;28;20049;-65
2022/07/02 03:36:07;;;;;;;5.00;3.05;;;12.80;99.90;;;;;;5067538;28;20044;-65
2022/07/02 03:38:33;;;;;;;4.13;2.95;;;12.80;99.90;;;;;;5067100;28;20055;-64
2022/07/02 03:40:58;;;;;;;5.18;3.03;;;12.80;99.90;;;;;;5066833;28;20041;-65
2022/07/02 03:43:24;;;;;;;4.88;2.42;;;12.80;99.90;;;;;;5067184;28;20067;-65
2022/07/02 03:45:50;;;;;;;4.45;2.95;;;12.80;99.90;;;;;;5066895;28;20045;-65
2022/07/02 03:48:15;;;;;;;7.32;3.08;;;12.80;99.90;;;;;;5067401;28;20414;-64
2022/07/02 03:50:42;;;;;;;4.20;2.65;;;12.80;99.90;;;;;;5067983;28;20048;-65
2022/07/02 03:53:08;;;;;;;6.72;3.20;;;12.70;99.90;;;;;;5066028;28;20491;-64
2022/07/02 03:55:34;;;;;;;8.73;3.33;;;12.70;99.90;;;;;;5067630;28;20094;-64
2022/07/02 03:57:59;;;;;;;2.75;2.42;;;12.70;99.90;;;;;;5066667;28;20052;-65
2022/07/02 04:00:25;;;;;;;6.82;3.90;;;12.70;99.90;;;;;;5066429;28;20063;-64
2022/07/02 04:02:51;;;;;;;5.20;2.90;;;12.80;99.90;;;;;;5066685;28;20047;-64
2022/07/02 04:05:16;;;;;;;5.40;3.13;;;12.80;99.90;;;;;;5067229;28;20044;-65
2022/07/02 04:07:42;;;;;;;3.40;2.35;;;12.80;99.90;;;;;;5066941;28;20131;-65
2022/07/02 04:10:08;;;;;;;7.47;2.92;;;12.80;99.90;;;;;;5066578;28;20049;-65
2022/07/02 04:12:33;;;;;;;19.58;3.28;;;12.90;99.90;;;;;;5066986;28;20037;-65
2022/07/02 04:14:59;;;;;;;6.47;3.58;;;12.90;99.90;;;;;;5066339;28;20052;-65
2022/07/02 04:17:25;;;;;;;6.65;3.05;;;13.00;99.90;;;;;;5065791;28;20055;-64
2022/07/02 04:19:50;;;;;;;4.70;2.83;;;13.00;99.90;;;;;;5082277;28;20056;-64
2022/07/02 04:22:16;;;;;;;10.98;3.13;;;13.10;99.90;;;;;;5067057;28;20037;-64
2022/07/02 04:24:41;;;;;;;5.63;2.65;;;13.10;99.90;;;;;;5069377;28;20083;-64
2022/07/02 04:27:07;;;;;;;7.03;3.13;;;13.10;99.90;;;;;;5067779;28;20491;-65
2022/07/02 04:29:33;;;;;;;4.60;2.58;;;13.10;99.90;;;;;;5067857;28;20451;-64
2022/07/02 04:31:59;;;;;;;8.77;2.55;;;13.20;99.90;;;;;;5067892;28;20403;-64
2022/07/02 04:34:24;;;;;;;4.88;2.97;;;13.30;99.90;;;;;;5068045;28;20040;-65
2022/07/02 04:36:50;;;;;;;5.68;3.47;;;13.40;99.90;;;;;;5065383;28;20416;-65
2022/07/02 04:39:16;;;;;;;7.35;3.47;;;13.40;99.90;;;;;;5067003;28;20552;-65
2022/07/02 04:41:41;;;;;;;4.53;3.08;;;13.40;99.90;;;;;;5065346;28;20075;-65
2022/07/02 04:44:07;;;;;;;14.63;3.80;;;13.50;99.90;;;;;;5066191;28;20093;-65
2022/07/02 04:46:33;;;;;;;6.45;3.58;;;13.50;99.90;;;;;;5066500;28;20137;-65
2022/07/02 04:48:58;;;;;;;7.82;3.15;;;13.50;99.90;;;;;;5064018;28;20049;-64
2022/07/02 04:51:24;;;;;;;10.48;3.08;;;13.60;99.90;;;;;;5066325;28;20410;-65
2022/07/02 04:53:50;;;;;;;4.40;2.70;;;13.70;99.90;;;;;;5065210;28;20327;-64
2022/07/02 04:56:16;;;;;;;5.05;3.42;;;13.80;99.90;;;;;;5065735;28;20052;-65
2022/07/02 04:58:41;;;;;;;7.55;3.08;;;13.80;99.90;;;;;;5065095;28;20184;-65
2022/07/02 05:01:07;;;;;;;5.55;2.85;;;13.90;99.90;;;;;;5066010;28;20127;-65
2022/07/02 05:03:33;;;;;;;6.60;3.10;;;14.00;99.90;;;;;;5065306;28;20037;-64
2022/07/02 05:05:58;;;;;;;3.97;2.95;;;14.00;99.90;;;;;;5065762;28;20068;-65
2022/07/02 05:08:26;;;;;;;5.30;2.83;;;14.10;99.90;;;;;;5066147;28;20048;-65
2022/07/02 05:10:55;;;;;;;4.80;2.90;;;14.20;99.90;;;;;;5065001;28;20048;-64
2022/07/02 05:13:22;;;;;;;2.88;2.58;;;14.30;99.90;;;;;;5066209;28;20055;-65
2022/07/02 05:15:48;;;;;;;4.13;3.05;;;14.30;99.90;;;;;;5066043;28;20402;-65
2022/07/02 05:18:14;;;;;;;5.47;3.65;;;14.40;99.90;;;;;;5065702;28;20091;-64
2022/07/02 05:20:40;;;;;;;15.43;4.38;;;14.80;99.90;;;;;;5066109;28;20503;-65
2022/07/02 05:23:06;;;;;;;6.63;3.40;;;14.50;99.90;;;;;;5065503;28;20509;-65
2022/07/02 05:25:32;;;;;;;4.75;3.33;;;14.50;99.90;;;;;;5065228;28;20044;-64
2022/07/02 05:27:57;;;;;;;6.88;3.90;;;14.60;99.90;;;;;;5065635;28;20037;-64
2022/07/02 05:30:23;;;;;;;5.93;3.95;;;14.60;99.90;;;;;;5065851;28;20071;-65
2022/07/02 05:32:49;;;;;;;6.10;3.80;;;14.70;99.90;;;;;;5063384;28;20045;-65
2022/07/02 05:35:14;;;;;;;11.85;4.60;;;14.70;99.90;;;;;;5066677;28;20049;-65
2022/07/02 05:37:40;;;;;;;15.88;4.35;;;14.70;99.90;;;;;;5065953;28;20094;-65
2022/07/02 05:40:07;;;;;;;5.82;5.25;;;14.80;99.90;;;;;;5064771;28;20094;-65
2022/07/02 05:42:33;;;;;;;4.38;3.90;;;14.80;99.90;;;;;;5065827;28;20051;-65
2022/07/02 05:44:58;;;;;;;8.98;5.05;;;14.90;99.90;;;;;;5064668;28;20044;-65
2022/07/02 05:47:24;;;;;;;9.07;4.75;;;14.90;99.90;;;;;;5065969;28;20376;-65
2022/07/02 05:49:49;;;;;;;9.50;5.15;;;15.00;99.90;;;;;;5065397;28;20047;-65
2022/07/02 05:52:17;;;;;;;8.25;4.57;;;15.00;99.90;;;;;;5065118;28;20101;-65
2022/07/02 05:54:43;;;;;;;8.18;5.20;;;15.10;99.90;;;;;;5066039;28;20488;-67
2022/07/02 05:57:09;;;;;;;10.68;4.88;;;15.10;99.90;;;;;;5065175;28;20090;-65
2022/07/02 05:59:36;;;;;;;7.30;4.45;;;15.20;99.90;;;;;;5065046;28;20426;-65
2022/07/02 06:02:04;;;;;;;7.93;4.45;;;15.20;99.90;;;;;;5063835;28;20084;-65
2022/07/02 06:04:31;;;;;;;6.32;4.40;;;15.20;99.90;;;;;;5066151;28;20045;-64
2022/07/02 06:09:42;;;;;;;6.63;4.53;;;15.40;99.90;;;;;;5070017;28;20127;-64
2022/07/02 06:12:08;;;;;;;6.35;3.78;;;15.40;99.90;;;;;;5069064;28;20124;-65
2022/07/02 06:14:34;;;;;;;3.88;3.30;;;15.50;99.90;;;;;;5067379;28;20084;-65
2022/07/02 06:17:00;;;;;;;7.78;3.75;;;15.50;99.90;;;;;;5068852;28;20465;-65
2022/07/02 06:19:25;;;;;;;6.80;4.03;;;15.60;99.90;;;;;;5067720;28;20048;-65
2022/07/02 06:21:51;;;;;;;8.80;4.40;;;15.60;99.90;;;;;;5068190;28;20449;-65
2022/07/02 06:24:16;;;;;;;9.45;4.05;;;15.90;99.90;;;;;;5069226;28;20084;-65
2022/07/02 06:26:42;;;;;;;7.53;4.40;;;15.80;99.90;;;;;;5068658;28;20040;-65
2022/07/02 06:29:08;;;;;;;5.32;3.40;;;15.90;99.90;;;;;;5068225;28;20479;-65
2022/07/02 06:31:33;;;;;;;5.13;3.03;;;15.90;99.90;;;;;;5069099;28;20044;-66
2022/07/02 06:33:59;;;;;;;7.60;3.47;;;16.00;99.90;;;;;;5068635;28;20083;-65
2022/07/02 06:36:24;;;;;;;15.68;4.22;;;16.10;99.90;;;;;;5068150;28;20173;-65
2022/07/02 06:38:51;;;;;;;7.22;3.42;;;16.20;99.90;;;;;;5068854;28;20448;-65
2022/07/02 06:44:02;;;;;;;5.63;3.08;;;16.30;99.90;;;;;;5068455;28;20423;-65
2022/07/02 06:46:28;;;;;;;20.20;3.80;;;16.30;99.90;;;;;;5068620;28;20484;-65
2022/07/02 06:48:54;;;;;;;8.23;3.45;;;16.40;99.90;;;;;;5067310;28;20041;-65
2022/07/02 06:51:20;;;;;;;6.72;3.13;;;16.50;99.90;;;;;;5068824;28;20399;-64
2022/07/02 06:53:47;;;;;;;6.32;3.30;;;16.60;99.90;;;;;;5069285;28;20048;-65
2022/07/02 06:56:12;;;;;;;5.22;3.22;;;16.60;99.90;;;;;;5068859;28;20048;-65
2022/07/02 06:58:38;;;;;;;6.88;3.35;;;16.60;99.90;;;;;;5068064;28;20056;-65
2022/07/02 07:01:03;;;;;;;6.70;3.35;;;16.80;99.90;;;;;;5068151;28;20039;-65
2022/07/02 07:03:29;;;;;;;4.50;3.25;;;16.80;99.90;;;;;;5066374;28;20052;-65
2022/07/02 07:05:55;;;;;;;7.38;3.67;;;16.90;99.90;;;;;;5068039;28;20048;-65
2022/07/02 07:08:20;;;;;;;7.53;2.92;;;16.90;99.90;;;;;;5066961;28;20045;-65
2022/07/02 07:10:46;;;;;;;4.97;2.78;;;17.20;99.90;;;;;;5067593;28;20661;-65
2022/07/02 07:13:11;;;;;;;4.82;2.63;;;17.10;99.90;;;;;;5069030;28;20044;-65
2022/07/02 07:15:37;;;;;;;8.00;2.67;;;17.00;99.90;;;;;;5068286;28;20056;-65
2022/07/02 07:18:03;;;;;;;4.07;2.55;;;17.20;99.90;;;;;;5066337;28;20071;-65
2022/07/02 07:20:29;;;;;;;6.40;2.42;;;17.20;99.90;;;;;;5068200;28;20037;-65
2022/07/02 07:22:59;;;;;;;5.15;2.47;;;17.30;99.90;;;;;;5068148;28;20048;-65
2022/07/02 07:25:26;;;;;;;3.72;2.13;;;17.30;99.90;;;;;;5067343;28;20048;-65
2022/07/02 07:27:51;;;;;;;8.15;2.85;;;17.40;99.90;;;;;;5067602;28;20506;-65
2022/07/02 07:30:17;;;;;;;8.18;3.10;;;17.60;99.90;;;;;;5067843;28;20083;-65
2022/07/02 07:32:43;;;;;;;4.55;2.35;;;17.70;99.90;;;;;;5067465;28;20063;-65
2022/07/02 07:35:09;;;;;;;5.25;2.20;;;17.70;99.90;;;;;;5066140;28;20045;-65
2022/07/02 07:37:36;;;;;;;4.60;2.00;;;17.70;99.90;;;;;;5067196;28;20221;-65
2022/07/02 07:40:03;;;;;;;3.40;1.95;;;17.70;99.90;;;;;;5067328;28;20036;-65
2022/07/02 07:42:29;;;;;;;3.38;1.85;;;17.80;99.90;;;;;;5067831;28;20087;-65
2022/07/02 07:44:55;;;;;;;5.13;2.03;;;17.90;99.90;;;;;;5066505;28;20511;-65
2022/07/02 07:47:20;;;;;;;4.82;1.88;;;17.80;99.90;;;;;;5067431;28;20049;-65
2022/07/02 07:49:46;;;;;;;3.63;1.45;;;17.80;99.90;;;;;;5067780;28;20291;-65
2022/07/02 07:52:12;;;;;;;6.47;1.80;;;17.90;99.90;;;;;;5067224;28;20238;-65
2022/07/02 07:54:38;;;;;;;3.60;1.52;;;18.00;99.90;;;;;;5067376;28;20044;-65
2022/07/02 07:57:04;;;;;;;3.30;1.50;;;18.10;99.90;;;;;;5066997;28;20506;-65
2022/07/02 07:59:30;;;;;;;5.82;1.45;;;18.20;99.90;;;;;;5066299;28;20056;-65
2022/07/02 08:01:55;;;;;;;3.95;1.38;;;18.30;99.90;;;;;;5066924;28;20060;-65
2022/07/02 08:04:21;;;;;;;1.60;1.05;;;18.40;99.90;;;;;;5067239;28;20044;-65
2022/07/02 08:06:47;;;;;;;3.53;0.93;;;18.50;99.90;;;;;;5066018;28;20041;-65
2022/07/02 08:09:13;;;;;;;3.60;0.63;;;18.60;99.90;;;;;;5066110;28;20044;-64
2022/07/02 08:11:38;;;;;;;4.75;1.60;;;18.60;99.90;;;;;;5066976;28;20114;-65
2022/07/02 08:14:04;;;;;;;3.15;1.10;;;18.60;99.90;;;;;;5064487;28;20044;-64
2022/07/02 08:16:30;;;;;;;1.65;0.77;;;18.70;99.90;;;;;;5065716;28;20040;-65
2022/07/02 08:18:56;;;;;;;2.22;0.90;;;18.80;99.90;;;;;;5065583;28;20193;-65
2022/07/02 08:21:22;;;;;;;1.90;0.70;;;18.80;99.90;;;;;;5066047;28;20454;-65
2022/07/02 08:23:47;;;;;;;1.42;0.70;;;18.80;99.90;;;;;;5066618;28;20123;-65
2022/07/02 08:26:13;;;;;;;2.35;0.85;;;18.90;99.90;;;;;;5067334;28;20028;-65
2022/07/02 08:28:38;;;;;;;2.72;0.70;;;19.00;99.90;;;;;;5065569;28;20483;-65
2022/07/02 08:31:04;;;;;;;3.13;0.70;;;19.00;99.90;;;;;;5066279;28;20123;-65
2022/07/02 08:33:30;;;;;;;2.53;0.50;;;18.80;99.90;;;;;;5066696;28;20052;-65
2022/07/02 08:35:55;;;;;;;4.68;0.80;;;18.90;99.90;;;;;;5064304;28;20106;-64
2022/07/02 08:38:21;;;;;;;2.70;0.90;;;19.00;99.90;;;;;;5064999;28;20083;-65
2022/07/02 08:40:47;;;;;;;2.15;0.70;;;19.00;99.90;;;;;;5065537;28;20117;-65
2022/07/02 08:43:14;;;;;;;2.67;0.82;;;19.00;99.90;;;;;;5065873;28;20048;-65
2022/07/02 08:45:42;;;;;;;2.50;1.02;;;19.10;99.90;;;;;;5066379;28;20584;-65
2022/07/02 08:48:09;;;;;;;2.03;0.70;;;19.20;99.90;;;;;;5065419;28;20055;-65
2022/07/02 08:50:35;;;;;;;2.47;0.60;;;19.20;99.90;;;;;;5066301;28;20055;-65
2022/07/02 08:53:03;;;;;;;2.90;0.90;;;19.30;99.90;;;;;;5066018;28;20462;-64
2022/07/02 08:55:32;;;;;;;0.95;0.47;;;19.40;99.90;;;;;;5064581;28;20041;-65
2022/07/02 08:57:58;;;;;;;2.33;0.60;;;19.40;99.90;;;;;;5065780;28;20055;-65
2022/07/02 09:00:25;;;;;;;5.95;1.05;;;19.50;99.90;;;;;;5066006;28;20453;-65
2022/07/02 09:02:51;;;;;;;1.45;0.60;;;19.60;99.90;;;;;;5065254;28;20067;-65
2022/07/02 09:05:19;;;;;;;1.45;0.77;;;19.90;99.90;;;;;;5066408;28;20053;-65
2022/07/02 09:07:46;;;;;;;3.67;0.60;;;19.70;99.90;;;;;;5066928;28;20089;-65
2022/07/02 09:10:12;;;;;;;3.08;0.90;;;19.70;99.90;;;;;;5065680;28;20526;-65
2022/07/02 09:12:39;;;;;;;1.15;0.60;;;19.80;99.90;;;;;;5065916;28;20083;-65
2022/07/02 09:15:06;;;;;;;1.67;0.65;;;19.80;99.90;;;;;;5065684;28;20052;-65
2022/07/02 09:17:32;;;;;;;1.73;0.45;;;19.90;99.90;;;;;;5063994;28;20126;-65
2022/07/02 09:19:58;;;;;;;1.38;0.40;;;19.90;99.90;;;;;;5065849;28;20040;-64
2022/07/02 09:22:33;;;;;;;1.23;0.75;;;20.00;99.90;;;;;;5065765;28;20052;-65
2022/07/02 09:25:10;;;;;;;1.92;0.70;;;20.10;99.90;;;;;;5063503;28;20048;-65
2022/07/02 09:27:35;;;;;;;4.07;0.50;;;20.20;99.90;;;;;;5066291;28;20107;-65
2022/07/02 09:30:01;;;;;;;2.88;0.82;;;20.30;99.90;;;;;;5064975;28;20098;-65
2022/07/02 09:32:27;;;;;;;2.28;0.60;;;20.50;99.90;;;;;;5065967;28;20510;-65
2022/07/02 09:34:54;;;;;;;3.00;0.75;;;20.50;99.90;;;;;;5065481;28;20037;-65
2022/07/02 09:37:20;;;;;;;3.03;0.80;;;20.60;99.90;;;;;;5065008;28;20079;-65
2022/07/02 09:39:48;;;;;;;6.00;0.93;;;20.70;99.90;;;;;;5066633;28;20048;-65
2022/07/02 09:42:27;;;;;;;1.13;0.60;;;20.70;99.90;;;;;;5070279;28;20491;-65
2022/07/02 09:44:53;;;;;;;1.83;0.60;;;20.70;99.90;;;;;;5068969;28;20044;-65
2022/07/02 09:47:48;;;;;;;2.47;0.65;;;20.80;99.90;;;;;;5068489;28;20043;-65
2022/07/02 09:50:16;;;;;;;1.20;0.70;;;20.90;99.90;;;;;;5072885;28;20149;-65
2022/07/02 09:52:53;;;;;;;1.83;0.82;;;20.90;99.90;;;;;;5069755;28;20040;-65
2022/07/02 09:55:30;;;;;;;2.17;0.52;;;20.90;99.90;;;;;;5069918;28;20098;-65
2022/07/02 09:58:02;;;;;;;3.25;0.68;;;21.00;99.90;;;;;;5069124;28;20053;-65
2022/07/02 10:00:32;;;;;;;1.42;0.70;;;21.10;99.90;;;;;;5068067;28;20056;-65
2022/07/02 10:02:59;;;;;;;2.88;0.93;;;21.20;99.90;;;;;;5067980;28;20463;-66
2022/07/02 10:05:28;;;;;;;0.90;0.55;;;21.20;99.90;;;;;;5068823;28;20430;-65
2022/07/02 10:07:56;;;;;;;1.00;0.52;;;21.20;99.90;;;;;;5069432;28;20048;-65
2022/07/02 10:10:28;;;;;;;3.05;0.80;;;21.20;99.90;;;;;;5069401;28;20068;-65
2022/07/02 10:12:55;;;;;;;1.52;0.65;;;21.30;99.90;;;;;;5068156;28;20052;-65
2022/07/02 10:15:24;;;;;;;3.60;0.60;;;21.40;99.90;;;;;;5067925;28;20132;-65
2022/07/02 10:17:54;;;;;;;1.15;0.50;;;21.50;99.90;;;;;;5069132;28;20332;-65
2022/07/02 10:20:22;;;;;;;1.27;0.70;;;21.40;99.90;;;;;;5068575;28;20051;-65
2022/07/02 10:22:47;;;;;;;1.20;0.60;;;21.40;99.90;;;;;;5068976;28;20519;-65
2022/07/02 10:25:13;;;;;;;3.42;0.80;;;21.40;99.90;;;;;;5069538;28;20076;-65
2022/07/02 10:27:40;;;;;;;2.30;0.60;;;21.20;99.90;;;;;;5068252;28;20131;-65
2022/07/02 10:30:06;;;;;;;0.80;0.40;;;21.20;99.90;;;;;;5068650;28;20436;-65
2022/07/02 10:32:50;;;;;;;0.95;0.50;;;21.20;99.90;;;;;;5069118;28;20040;-65
2022/07/02 10:35:16;;;;;;;2.53;0.30;;;21.20;99.90;;;;;;5068331;28;20067;-65
2022/07/02 10:37:44;;;;;;;2.70;0.32;;;21.30;99.90;;;;;;5069453;28;20040;-65
2022/07/02 10:40:17;;;;;;;0.45;0.38;;;21.40;99.90;;;;;;5068356;28;20087;-65
2022/07/02 10:42:48;;;;;;;3.17;0.63;;;21.40;99.90;;;;;;5069548;28;20037;-65
2022/07/02 10:45:22;;;;;;;1.23;0.40;;;21.50;99.80;;;;;;5069270;28;20408;-65
2022/07/02 10:48:03;;;;;;;1.85;0.70;;;21.50;98.00;;;;;;5067881;28;20105;-65
2022/07/02 10:50:35;;;;;;;0.85;0.30;;;21.50;98.20;;;;;;5068497;28;20046;-65
2022/07/02 10:53:11;;;;;;;0.60;0.40;;;21.50;99.90;;;;;;5068601;28;20380;-65
2022/07/02 10:55:37;;;;;;;0.65;0.30;;;21.50;98.70;;;;;;5067965;28;20044;-65
2022/07/02 10:58:06;;;;;;;1.00;0.40;;;21.70;98.90;;;;;;5068161;28;20059;-65
2022/07/02 11:00:39;;;;;;;1.45;0.20;;;21.70;96.40;;;;;;5068459;28;20403;-65
2022/07/02 11:03:21;;;;;;;1.17;0.30;;;21.70;93.00;;;;;;5067280;28;20241;-65
2022/07/02 11:06:06;;;;;;;1.38;0.40;;;21.70;92.50;;;;;;5066873;28;20653;-65
2022/07/02 11:08:41;;;;;;;0.63;0.32;;;21.80;91.50;;;;;;5067472;28;20411;-65
2022/07/02 11:11:08;;;;;;;1.95;0.50;;;21.80;91.70;;;;;;5067929;28;20048;-65
2022/07/02 11:13:48;;;;;;;1.23;0.47;;;21.90;91.20;;;;;;5068042;28;20123;-65
2022/07/02 11:16:22;;;;;;;0.30;0.20;;;22.00;92.00;;;;;;5067863;28;20484;-65
2022/07/02 11:18:49;;;;;;;0.40;0.22;;;22.20;93.60;;;;;;5067823;28;20052;-65
2022/07/02 11:21:15;;;;;;;0.57;0.30;;;22.30;86.90;;;;;;5068434;28;20354;-65
2022/07/02 11:23:42;;;;;;;0.90;0.38;;;22.40;83.70;;;;;;5067917;28;20048;-65
2022/07/02 11:26:08;;;;;;;1.92;0.95;;;22.50;84.80;;;;;;5067573;28;20055;-65
2022/07/02 11:28:38;;;;;;;1.60;0.47;;;22.60;84.90;;;;;;5067934;28;20069;-65
2022/07/02 11:31:04;;;;;;;0.60;0.40;;;22.70;83.90;;;;;;5066731;28;20040;-65
2022/07/02 11:33:33;;;;;;;3.10;0.40;;;22.60;83.10;;;;;;5067844;28;20119;-65
2022/07/02 11:35:59;;;;;;;0.32;0.32;;;22.70;81.40;;;;;;5067480;28;20055;-65
2022/07/02 11:38:25;;;;;;;0.57;0.20;;;22.60;80.00;;;;;;5066936;28;20052;-65
2022/07/02 11:40:50;;;;;;;1.10;0.30;;;22.60;76.50;;;;;;5067533;28;20049;-65
2022/07/02 11:43:17;;;;;;;2.85;0.43;;;22.60;75.70;;;;;;5067207;28;20460;-65
2022/07/02 11:45:48;;;;;;;3.00;0.47;;;22.60;79.00;;;;;;5067529;28;20074;-64
2022/07/02 11:48:21;;;;;;;0.32;0.20;;;22.60;76.70;;;;;;5068015;28;20445;-65
2022/07/02 11:51:00;;;;;;;0.80;0.30;;;22.60;72.20;;;;;;5066303;28;20090;-65
2022/07/02 11:53:26;;;;;;;0.32;0.30;;;22.80;74.20;;;;;;5067375;28;20044;-65
2022/07/02 11:56:03;;;;;;;1.13;0.32;;;22.80;76.90;;;;;;5067130;28;20040;-65
2022/07/02 11:58:44;;;;;;;1.80;0.60;;;22.90;79.00;;;;;;5066302;28;20057;-65
2022/07/02 12:01:21;;;;;;;0.73;0.50;;;23.00;80.40;;;;;;5066970;28;20041;-65
2022/07/02 12:03:48;;;;;;;2.40;0.95;;;22.90;75.10;;;;;;5066481;28;20048;-65
2022/07/02 12:06:14;;;;;;;1.75;0.40;;;23.20;76.40;;;;;;5066892;28;20040;-65
2022/07/02 12:08:42;;;;;;;1.17;0.43;;;23.20;74.90;;;;;;5067233;28;20048;-65
2022/07/02 12:11:17;;;;;;;1.27;0.30;;;23.10;72.20;;;;;;5066604;28;20124;-65
2022/07/02 12:13:43;;;;;;;0.90;0.35;;;23.10;77.10;;;;;;5066688;28;20087;-65
2022/07/02 12:16:14;;;;;;;1.95;0.30;;;23.00;74.00;;;;;;5065674;28;20495;-65
2022/07/02 12:18:40;;;;;;;1.60;0.57;;;22.90;76.10;;;;;;5067073;28;20052;-66
2022/07/02 12:21:14;;;;;;;0.90;0.40;;;22.80;75.80;;;;;;5066159;28;20314;-65
2022/07/02 12:23:44;;;;;;;0.95;0.25;;;22.80;73.10;;;;;;5065316;28;20076;-65
2022/07/02 12:26:10;;;;;;;0.43;0.30;;;22.80;75.90;;;;;;5065765;28;20479;-65
2022/07/02 12:31:20;;;;;;;0.28;0.25;;;23.20;77.40;;;;;;5066689;28;20048;-65
2022/07/02 12:33:55;;;;;;;1.80;0.40;;;23.10;77.10;;;;;;5065792;28;20545;-65
2022/07/02 12:36:21;;;;;;;0.88;0.35;;;23.30;76.90;;;;;;5066518;28;20459;-65
2022/07/02 12:38:47;;;;;;;1.23;0.40;;;23.20;75.30;;;;;;5066135;28;20094;-65
2022/07/02 12:41:13;;;;;;;1.30;0.30;;;23.00;74.70;;;;;;5064811;28;20384;-65
2022/07/02 12:43:38;;;;;;;1.00;0.35;;;23.00;73.90;;;;;;5066565;28;20082;-65
2022/07/02 12:46:05;;;;;;;0.68;0.30;;;23.00;73.60;;;;;;5065956;28;20461;-65
2022/07/02 12:48:41;;;;;;;1.75;0.60;;;23.00;74.90;;;;;;5065341;28;20058;-65
2022/07/02 12:51:11;;;;;;;0.70;0.32;;;23.00;74.80;;;;;;5066153;28;20059;-65
2022/07/02 12:53:37;;;;;;;2.30;0.40;;;22.90;74.30;;;;;;5066044;28;20495;-65
2022/07/02 12:56:04;;;;;;;2.60;0.50;;;22.80;76.10;;;;;;5064175;28;20212;-65